sensor_id;sensor_type;location;lat;lon;timestamp;P1;durP1;ratioP1;P2;durP2;ratioP2
6117;SDS011;3089;48.202;11.510;2022-09-12T00:00:51;3.47;;;1.53;;
6117;SDS011;3089;48.202;11.510;2022-09-12T00:03:29;3.50;;;1.57;;
6117;SDS011;3089;48.202;11.510;2022-09-12T00:05:57;4.00;;;1.60;;
6117;SDS011;3089;48.202;11.510;2022-09-12T00:08:25;4.73;;;2.10;;
6117;SDS011;3089;48.202;11.510;2022-09-12T00:10:53;4.00;;;1.40;;
6117;SDS011;3089;48.202;11.510;2022-09-12T00:13:20;3.33;;;1.57;;
6117;SDS011;3089;48.202;11.510;2022-09-12T00:15:48;4.03;;;1.60;;
6117;SDS011;3089;48.202;11.510;2022-09-12T00:18:16;7.20;;;1.63;;
6117;SDS011;3089;48.202;11.510;2022-09-12T00:20:45;3.70;;;1.50;;
6117;SDS011;3089;48.202;11.510;2022-09-12T00:23:14;5.60;;;1.60;;
6117;SDS011;3089;48.202;11.510;2022-09-12T00:25:41;3.47;;;1.73;;
6117;SDS011;3089;48.202;11.510;2022-09-12T00:28:10;6.50;;;1.73;;
6117;SDS011;3089;48.202;11.510;2022-09-12T00:30:39;3.50;;;1.50;;
6117;SDS011;3089;48.202;11.510;2022-09-12T00:33:08;3.30;;;1.50;;
6117;SDS011;3089;48.202;11.510;2022-09-12T00:35:39;3.93;;;1.80;;
6117;SDS011;3089;48.202;11.510;2022-09-12T00:38:09;2.97;;;1.20;;
6117;SDS011;3089;48.202;11.510;2022-09-12T00:40:37;3.27;;;1.60;;
6117;SDS011;3089;48.202;11.510;2022-09-12T00:43:08;3.23;;;1.57;;
6117;SDS011;3089;48.202;11.510;2022-09-12T00:45:39;4.30;;;1.70;;
6117;SDS011;3089;48.202;11.510;2022-09-12T00:48:14;3.30;;;1.47;;
6117;SDS011;3089;48.202;11.510;2022-09-12T00:50:48;2.93;;;1.23;;
6117;SDS011;3089;48.202;11.510;2022-09-12T00:53:17;4.00;;;1.27;;
6117;SDS011;3089;48.202;11.510;2022-09-12T00:55:46;2.90;;;1.17;;
6117;SDS011;3089;48.202;11.510;2022-09-12T00:58:18;2.80;;;1.17;;
6117;SDS011;3089;48.202;11.510;2022-09-12T01:00:48;2.70;;;1.20;;
6117;SDS011;3089;48.202;11.510;2022-09-12T01:03:16;3.43;;;1.40;;
6117;SDS011;3089;48.202;11.510;2022-09-12T01:05:49;5.17;;;1.53;;
6117;SDS011;3089;48.202;11.510;2022-09-12T01:08:27;2.70;;;1.30;;
6117;SDS011;3089;48.202;11.510;2022-09-12T01:10:55;5.13;;;1.60;;
6117;SDS011;3089;48.202;11.510;2022-09-12T01:13:23;3.20;;;1.40;;
6117;SDS011;3089;48.202;11.510;2022-09-12T01:15:52;2.97;;;1.30;;
6117;SDS011;3089;48.202;11.510;2022-09-12T01:18:23;3.33;;;1.80;;
6117;SDS011;3089;48.202;11.510;2022-09-12T01:26:56;3.20;;;1.37;;
6117;SDS011;3089;48.202;11.510;2022-09-12T01:32:48;3.53;;;1.43;;
6117;SDS011;3089;48.202;11.510;2022-09-12T01:35:31;3.20;;;1.30;;
6117;SDS011;3089;48.202;11.510;2022-09-12T01:38:07;3.87;;;1.77;;
6117;SDS011;3089;48.202;11.510;2022-09-12T01:40:41;2.90;;;1.20;;
6117;SDS011;3089;48.202;11.510;2022-09-12T01:43:15;2.67;;;1.23;;
6117;SDS011;3089;48.202;11.510;2022-09-12T01:45:49;3.03;;;1.07;;
6117;SDS011;3089;48.202;11.510;2022-09-12T01:48:23;4.63;;;1.17;;
6117;SDS011;3089;48.202;11.510;2022-09-12T01:50:55;3.90;;;1.43;;
6117;SDS011;3089;48.202;11.510;2022-09-12T01:53:28;2.90;;;1.30;;
6117;SDS011;3089;48.202;11.510;2022-09-12T01:56:01;3.00;;;1.23;;
6117;SDS011;3089;48.202;11.510;2022-09-12T01:58:35;3.03;;;1.47;;
6117;SDS011;3089;48.202;11.510;2022-09-12T02:01:08;2.87;;;1.00;;
6117;SDS011;3089;48.202;11.510;2022-09-12T02:03:40;3.10;;;1.23;;
6117;SDS011;3089;48.202;11.510;2022-09-12T02:06:14;3.20;;;1.40;;
6117;SDS011;3089;48.202;11.510;2022-09-12T02:08:46;2.80;;;1.10;;
6117;SDS011;3089;48.202;11.510;2022-09-12T02:11:18;2.70;;;1.17;;
6117;SDS011;3089;48.202;11.510;2022-09-12T02:13:48;3.03;;;1.33;;
6117;SDS011;3089;48.202;11.510;2022-09-12T02:16:22;2.70;;;1.17;;
6117;SDS011;3089;48.202;11.510;2022-09-12T02:18:58;3.10;;;1.47;;
6117;SDS011;3089;48.202;11.510;2022-09-12T02:21:31;2.93;;;1.20;;
6117;SDS011;3089;48.202;11.510;2022-09-12T02:24:02;3.47;;;1.20;;
6117;SDS011;3089;48.202;11.510;2022-09-12T02:26:35;3.23;;;0.90;;
6117;SDS011;3089;48.202;11.510;2022-09-12T02:29:09;3.17;;;1.30;;
6117;SDS011;3089;48.202;11.510;2022-09-12T02:31:39;3.33;;;1.20;;
6117;SDS011;3089;48.202;11.510;2022-09-12T02:34:13;3.13;;;1.20;;
6117;SDS011;3089;48.202;11.510;2022-09-12T02:36:51;8.03;;;1.00;;
6117;SDS011;3089;48.202;11.510;2022-09-12T02:39:25;2.73;;;1.10;;
6117;SDS011;3089;48.202;11.510;2022-09-12T02:41:53;3.20;;;1.23;;
6117;SDS011;3089;48.202;11.510;2022-09-12T02:44:22;3.20;;;1.30;;
6117;SDS011;3089;48.202;11.510;2022-09-12T02:46:53;2.60;;;1.10;;
6117;SDS011;3089;48.202;11.510;2022-09-12T02:49:25;3.90;;;1.27;;
6117;SDS011;3089;48.202;11.510;2022-09-12T02:51:53;4.03;;;1.10;;
6117;SDS011;3089;48.202;11.510;2022-09-12T02:54:21;2.77;;;1.10;;
6117;SDS011;3089;48.202;11.510;2022-09-12T02:56:50;3.90;;;1.60;;
6117;SDS011;3089;48.202;11.510;2022-09-12T02:59:18;2.60;;;1.10;;
6117;SDS011;3089;48.202;11.510;2022-09-12T03:01:55;2.30;;;0.80;;
6117;SDS011;3089;48.202;11.510;2022-09-12T03:04:46;6.73;;;1.13;;
6117;SDS011;3089;48.202;11.510;2022-09-12T03:07:35;3.10;;;1.13;;
6117;SDS011;3089;48.202;11.510;2022-09-12T03:10:13;3.57;;;1.27;;
6117;SDS011;3089;48.202;11.510;2022-09-12T03:12:51;4.40;;;1.27;;
6117;SDS011;3089;48.202;11.510;2022-09-12T03:15:32;5.40;;;0.93;;
6117;SDS011;3089;48.202;11.510;2022-09-12T03:18:22;2.60;;;0.90;;
6117;SDS011;3089;48.202;11.510;2022-09-12T03:21:01;2.90;;;0.90;;
6117;SDS011;3089;48.202;11.510;2022-09-12T03:23:36;3.27;;;1.13;;
6117;SDS011;3089;48.202;11.510;2022-09-12T03:26:09;2.60;;;1.10;;
6117;SDS011;3089;48.202;11.510;2022-09-12T03:28:43;5.30;;;1.20;;
6117;SDS011;3089;48.202;11.510;2022-09-12T03:31:13;3.20;;;1.47;;
6117;SDS011;3089;48.202;11.510;2022-09-12T03:33:43;2.70;;;1.10;;
6117;SDS011;3089;48.202;11.510;2022-09-12T03:36:15;3.20;;;1.10;;
6117;SDS011;3089;48.202;11.510;2022-09-12T03:38:45;2.50;;;1.00;;
6117;SDS011;3089;48.202;11.510;2022-09-12T03:41:13;6.67;;;1.10;;
6117;SDS011;3089;48.202;11.510;2022-09-12T03:43:41;3.30;;;1.23;;
6117;SDS011;3089;48.202;11.510;2022-09-12T03:46:09;3.10;;;1.27;;
6117;SDS011;3089;48.202;11.510;2022-09-12T03:48:36;3.10;;;1.10;;
6117;SDS011;3089;48.202;11.510;2022-09-12T03:51:06;5.07;;;1.63;;
6117;SDS011;3089;48.202;11.510;2022-09-12T03:53:36;7.50;;;0.90;;
6117;SDS011;3089;48.202;11.510;2022-09-12T03:56:05;2.83;;;1.13;;
6117;SDS011;3089;48.202;11.510;2022-09-12T03:58:33;2.70;;;1.00;;
6117;SDS011;3089;48.202;11.510;2022-09-12T04:01:05;3.63;;;1.00;;
6117;SDS011;3089;48.202;11.510;2022-09-12T04:03:37;2.50;;;1.00;;
6117;SDS011;3089;48.202;11.510;2022-09-12T04:06:07;2.90;;;1.10;;
6117;SDS011;3089;48.202;11.510;2022-09-12T04:08:37;3.00;;;1.40;;
6117;SDS011;3089;48.202;11.510;2022-09-12T04:11:05;3.27;;;1.40;;
6117;SDS011;3089;48.202;11.510;2022-09-12T04:13:35;3.00;;;1.10;;
6117;SDS011;3089;48.202;11.510;2022-09-12T04:16:04;3.20;;;1.13;;
6117;SDS011;3089;48.202;11.510;2022-09-12T04:18:33;3.90;;;1.03;;
6117;SDS011;3089;48.202;11.510;2022-09-12T04:21:02;3.37;;;1.30;;
6117;SDS011;3089;48.202;11.510;2022-09-12T04:23:32;3.40;;;1.23;;
6117;SDS011;3089;48.202;11.510;2022-09-12T04:26:00;3.77;;;1.40;;
6117;SDS011;3089;48.202;11.510;2022-09-12T04:28:31;3.13;;;1.13;;
6117;SDS011;3089;48.202;11.510;2022-09-12T04:31:01;2.90;;;1.10;;
6117;SDS011;3089;48.202;11.510;2022-09-12T04:33:30;5.30;;;1.10;;
6117;SDS011;3089;48.202;11.510;2022-09-12T04:36:01;3.57;;;1.10;;
6117;SDS011;3089;48.202;11.510;2022-09-12T04:38:32;2.93;;;1.30;;
6117;SDS011;3089;48.202;11.510;2022-09-12T04:41:06;3.67;;;1.10;;
6117;SDS011;3089;48.202;11.510;2022-09-12T04:43:36;3.37;;;1.30;;
6117;SDS011;3089;48.202;11.510;2022-09-12T04:46:04;2.70;;;1.27;;
6117;SDS011;3089;48.202;11.510;2022-09-12T04:48:33;2.83;;;1.00;;
6117;SDS011;3089;48.202;11.510;2022-09-12T04:51:07;2.40;;;0.90;;
6117;SDS011;3089;48.202;11.510;2022-09-12T04:53:37;2.30;;;0.90;;
6117;SDS011;3089;48.202;11.510;2022-09-12T04:56:06;6.97;;;1.50;;
6117;SDS011;3089;48.202;11.510;2022-09-12T04:58:35;2.80;;;1.07;;
6117;SDS011;3089;48.202;11.510;2022-09-12T05:01:04;4.00;;;1.10;;
6117;SDS011;3089;48.202;11.510;2022-09-12T05:03:33;3.00;;;1.20;;
6117;SDS011;3089;48.202;11.510;2022-09-12T05:06:04;3.57;;;1.10;;
6117;SDS011;3089;48.202;11.510;2022-09-12T05:08:34;4.00;;;1.70;;
6117;SDS011;3089;48.202;11.510;2022-09-12T05:11:03;9.77;;;1.60;;
6117;SDS011;3089;48.202;11.510;2022-09-12T05:13:32;2.70;;;1.00;;
6117;SDS011;3089;48.202;11.510;2022-09-12T05:16:01;3.67;;;1.27;;
6117;SDS011;3089;48.202;11.510;2022-09-12T05:18:30;3.30;;;1.20;;
6117;SDS011;3089;48.202;11.510;2022-09-12T05:20:59;5.43;;;1.73;;
6117;SDS011;3089;48.202;11.510;2022-09-12T05:23:28;4.03;;;1.70;;
6117;SDS011;3089;48.202;11.510;2022-09-12T05:25:56;4.70;;;1.40;;
6117;SDS011;3089;48.202;11.510;2022-09-12T05:28:29;8.13;;;2.53;;
6117;SDS011;3089;48.202;11.510;2022-09-12T05:31:00;4.80;;;1.70;;
6117;SDS011;3089;48.202;11.510;2022-09-12T05:33:30;3.83;;;2.00;;
6117;SDS011;3089;48.202;11.510;2022-09-12T05:35:58;4.13;;;1.70;;
6117;SDS011;3089;48.202;11.510;2022-09-12T05:38:26;5.80;;;1.50;;
6117;SDS011;3089;48.202;11.510;2022-09-12T05:41:01;3.37;;;1.50;;
6117;SDS011;3089;48.202;11.510;2022-09-12T05:43:31;4.27;;;1.60;;
6117;SDS011;3089;48.202;11.510;2022-09-12T05:45:59;7.43;;;1.40;;
6117;SDS011;3089;48.202;11.510;2022-09-12T05:48:28;6.97;;;1.30;;
6117;SDS011;3089;48.202;11.510;2022-09-12T05:50:59;2.63;;;1.10;;
6117;SDS011;3089;48.202;11.510;2022-09-12T05:53:28;11.73;;;1.40;;
6117;SDS011;3089;48.202;11.510;2022-09-12T05:56:01;3.10;;;1.33;;
6117;SDS011;3089;48.202;11.510;2022-09-12T05:58:34;3.43;;;1.43;;
6117;SDS011;3089;48.202;11.510;2022-09-12T06:01:04;4.40;;;1.73;;
6117;SDS011;3089;48.202;11.510;2022-09-12T06:03:33;5.83;;;1.73;;
6117;SDS011;3089;48.202;11.510;2022-09-12T06:06:03;3.03;;;1.27;;
6117;SDS011;3089;48.202;11.510;2022-09-12T06:08:31;3.57;;;1.53;;
6117;SDS011;3089;48.202;11.510;2022-09-12T06:11:02;8.40;;;1.87;;
6117;SDS011;3089;48.202;11.510;2022-09-12T06:13:31;7.70;;;1.80;;
6117;SDS011;3089;48.202;11.510;2022-09-12T06:16:04;3.70;;;1.27;;
6117;SDS011;3089;48.202;11.510;2022-09-12T06:18:34;5.87;;;1.47;;
6117;SDS011;3089;48.202;11.510;2022-09-12T06:21:03;3.43;;;1.50;;
6117;SDS011;3089;48.202;11.510;2022-09-12T06:23:32;17.43;;;2.23;;
6117;SDS011;3089;48.202;11.510;2022-09-12T06:26:00;5.17;;;1.77;;
6117;SDS011;3089;48.202;11.510;2022-09-12T06:28:30;3.73;;;1.70;;
6117;SDS011;3089;48.202;11.510;2022-09-12T06:31:02;4.03;;;1.70;;
6117;SDS011;3089;48.202;11.510;2022-09-12T06:33:33;9.53;;;3.20;;
6117;SDS011;3089;48.202;11.510;2022-09-12T06:36:05;4.50;;;1.50;;
6117;SDS011;3089;48.202;11.510;2022-09-12T06:38:38;5.70;;;1.80;;
6117;SDS011;3089;48.202;11.510;2022-09-12T06:41:06;8.00;;;1.93;;
6117;SDS011;3089;48.202;11.510;2022-09-12T06:43:36;16.20;;;2.00;;
6117;SDS011;3089;48.202;11.510;2022-09-12T06:46:06;6.20;;;2.07;;
6117;SDS011;3089;48.202;11.510;2022-09-12T06:48:34;9.03;;;2.17;;
6117;SDS011;3089;48.202;11.510;2022-09-12T06:51:08;4.47;;;1.83;;
6117;SDS011;3089;48.202;11.510;2022-09-12T06:53:38;7.83;;;2.10;;
6117;SDS011;3089;48.202;11.510;2022-09-12T06:56:08;4.70;;;1.87;;
6117;SDS011;3089;48.202;11.510;2022-09-12T06:58:37;3.43;;;1.87;;
6117;SDS011;3089;48.202;11.510;2022-09-12T07:01:08;4.50;;;1.60;;
6117;SDS011;3089;48.202;11.510;2022-09-12T07:03:37;3.47;;;1.57;;
6117;SDS011;3089;48.202;11.510;2022-09-12T07:06:07;3.30;;;1.50;;
6117;SDS011;3089;48.202;11.510;2022-09-12T07:08:37;5.27;;;2.03;;
6117;SDS011;3089;48.202;11.510;2022-09-12T07:11:10;5.03;;;1.77;;
6117;SDS011;3089;48.202;11.510;2022-09-12T07:13:42;4.03;;;1.80;;
6117;SDS011;3089;48.202;11.510;2022-09-12T07:16:13;6.87;;;1.97;;
6117;SDS011;3089;48.202;11.510;2022-09-12T07:18:48;6.90;;;2.00;;
6117;SDS011;3089;48.202;11.510;2022-09-12T07:21:17;4.30;;;2.00;;
6117;SDS011;3089;48.202;11.510;2022-09-12T07:23:45;5.57;;;1.60;;
6117;SDS011;3089;48.202;11.510;2022-09-12T07:26:14;4.30;;;1.83;;
6117;SDS011;3089;48.202;11.510;2022-09-12T07:28:42;5.03;;;1.60;;
6117;SDS011;3089;48.202;11.510;2022-09-12T07:31:11;4.60;;;2.00;;
6117;SDS011;3089;48.202;11.510;2022-09-12T07:33:42;5.40;;;2.03;;
6117;SDS011;3089;48.202;11.510;2022-09-12T07:36:10;6.07;;;2.60;;
6117;SDS011;3089;48.202;11.510;2022-09-12T07:38:39;4.50;;;1.90;;
6117;SDS011;3089;48.202;11.510;2022-09-12T07:41:09;7.20;;;2.10;;
6117;SDS011;3089;48.202;11.510;2022-09-12T07:43:37;5.90;;;2.83;;
6117;SDS011;3089;48.202;11.510;2022-09-12T07:46:06;4.33;;;2.23;;
6117;SDS011;3089;48.202;11.510;2022-09-12T07:48:34;7.03;;;2.30;;
6117;SDS011;3089;48.202;11.510;2022-09-12T07:51:04;5.30;;;2.37;;
6117;SDS011;3089;48.202;11.510;2022-09-12T07:53:34;5.43;;;2.47;;
6117;SDS011;3089;48.202;11.510;2022-09-12T07:56:04;6.87;;;2.80;;
6117;SDS011;3089;48.202;11.510;2022-09-12T07:58:33;4.93;;;2.60;;
6117;SDS011;3089;48.202;11.510;2022-09-12T08:01:02;8.00;;;2.53;;
6117;SDS011;3089;48.202;11.510;2022-09-12T08:03:31;5.30;;;2.73;;
6117;SDS011;3089;48.202;11.510;2022-09-12T08:06:04;4.90;;;2.70;;
6117;SDS011;3089;48.202;11.510;2022-09-12T08:08:32;7.17;;;3.10;;
6117;SDS011;3089;48.202;11.510;2022-09-12T08:11:02;5.60;;;3.53;;
6117;SDS011;3089;48.202;11.510;2022-09-12T08:13:32;7.33;;;3.90;;
6117;SDS011;3089;48.202;11.510;2022-09-12T08:16:01;6.50;;;3.43;;
6117;SDS011;3089;48.202;11.510;2022-09-12T08:18:31;7.10;;;4.00;;
6117;SDS011;3089;48.202;11.510;2022-09-12T08:21:02;17.77;;;4.63;;
6117;SDS011;3089;48.202;11.510;2022-09-12T08:23:33;9.87;;;4.60;;
6117;SDS011;3089;48.202;11.510;2022-09-12T08:26:01;8.17;;;4.43;;
6117;SDS011;3089;48.202;11.510;2022-09-12T08:28:32;7.13;;;3.93;;
6117;SDS011;3089;48.202;11.510;2022-09-12T08:31:01;6.47;;;3.83;;
6117;SDS011;3089;48.202;11.510;2022-09-12T08:33:30;8.30;;;3.80;;
6117;SDS011;3089;48.202;11.510;2022-09-12T08:36:02;11.73;;;3.80;;
6117;SDS011;3089;48.202;11.510;2022-09-12T08:38:33;6.10;;;3.77;;
6117;SDS011;3089;48.202;11.510;2022-09-12T08:41:03;12.57;;;4.30;;
6117;SDS011;3089;48.202;11.510;2022-09-12T08:43:40;8.90;;;4.33;;
6117;SDS011;3089;48.202;11.510;2022-09-12T08:46:23;5.67;;;3.43;;
6117;SDS011;3089;48.202;11.510;2022-09-12T08:48:58;7.93;;;3.90;;
6117;SDS011;3089;48.202;11.510;2022-09-12T08:51:29;5.40;;;3.40;;
6117;SDS011;3089;48.202;11.510;2022-09-12T08:53:59;7.37;;;3.40;;
6117;SDS011;3089;48.202;11.510;2022-09-12T08:56:30;7.00;;;3.30;;
6117;SDS011;3089;48.202;11.510;2022-09-12T08:59:02;6.77;;;3.30;;
6117;SDS011;3089;48.202;11.510;2022-09-12T09:01:31;5.00;;;2.80;;
6117;SDS011;3089;48.202;11.510;2022-09-12T09:04:13;5.43;;;2.97;;
6117;SDS011;3089;48.202;11.510;2022-09-12T09:07:03;4.00;;;2.37;;
6117;SDS011;3089;48.202;11.510;2022-09-12T09:09:45;4.30;;;2.10;;
6117;SDS011;3089;48.202;11.510;2022-09-12T09:12:21;3.80;;;2.00;;
6117;SDS011;3089;48.202;11.510;2022-09-12T09:15:03;4.70;;;2.03;;
6117;SDS011;3089;48.202;11.510;2022-09-12T09:17:46;4.43;;;2.20;;
6117;SDS011;3089;48.202;11.510;2022-09-12T09:20:22;4.17;;;2.47;;
6117;SDS011;3089;48.202;11.510;2022-09-12T09:22:57;4.33;;;2.10;;
6117;SDS011;3089;48.202;11.510;2022-09-12T09:25:34;6.67;;;2.47;;
6117;SDS011;3089;48.202;11.510;2022-09-12T09:28:10;4.23;;;2.27;;
6117;SDS011;3089;48.202;11.510;2022-09-12T09:30:42;3.50;;;1.93;;
6117;SDS011;3089;48.202;11.510;2022-09-12T09:33:14;5.10;;;2.10;;
6117;SDS011;3089;48.202;11.510;2022-09-12T09:35:47;3.50;;;1.53;;
6117;SDS011;3089;48.202;11.510;2022-09-12T09:38:23;3.63;;;1.70;;
6117;SDS011;3089;48.202;11.510;2022-09-12T09:40:57;4.43;;;1.90;;
6117;SDS011;3089;48.202;11.510;2022-09-12T09:43:44;6.50;;;2.50;;
6117;SDS011;3089;48.202;11.510;2022-09-12T09:46:12;5.20;;;2.20;;
6117;SDS011;3089;48.202;11.510;2022-09-12T09:48:42;4.27;;;2.13;;
6117;SDS011;3089;48.202;11.510;2022-09-12T09:51:13;3.73;;;1.93;;
6117;SDS011;3089;48.202;11.510;2022-09-12T09:53:46;5.87;;;2.07;;
6117;SDS011;3089;48.202;11.510;2022-09-12T09:56:19;3.93;;;1.70;;
6117;SDS011;3089;48.202;11.510;2022-09-12T09:58:53;3.90;;;1.73;;
6117;SDS011;3089;48.202;11.510;2022-09-12T10:01:21;4.17;;;1.63;;
6117;SDS011;3089;48.202;11.510;2022-09-12T10:03:50;4.10;;;1.87;;
6117;SDS011;3089;48.202;11.510;2022-09-12T10:06:28;5.47;;;2.53;;
6117;SDS011;3089;48.202;11.510;2022-09-12T10:09:20;3.30;;;1.70;;
6117;SDS011;3089;48.202;11.510;2022-09-12T10:11:50;3.60;;;2.00;;
6117;SDS011;3089;48.202;11.510;2022-09-12T10:14:32;5.77;;;2.53;;
6117;SDS011;3089;48.202;11.510;2022-09-12T10:17:02;4.33;;;1.50;;
6117;SDS011;3089;48.202;11.510;2022-09-12T10:19:47;3.20;;;1.50;;
6117;SDS011;3089;48.202;11.510;2022-09-12T10:22:35;3.83;;;1.80;;
6117;SDS011;3089;48.202;11.510;2022-09-12T10:25:08;4.27;;;1.93;;
6117;SDS011;3089;48.202;11.510;2022-09-12T10:27:38;3.03;;;1.57;;
6117;SDS011;3089;48.202;11.510;2022-09-12T10:30:14;2.90;;;1.53;;
6117;SDS011;3089;48.202;11.510;2022-09-12T10:32:44;4.63;;;1.93;;
6117;SDS011;3089;48.202;11.510;2022-09-12T10:35:16;4.87;;;2.00;;
6117;SDS011;3089;48.202;11.510;2022-09-12T10:37:49;4.93;;;2.10;;
6117;SDS011;3089;48.202;11.510;2022-09-12T10:40:22;4.90;;;2.13;;
6117;SDS011;3089;48.202;11.510;2022-09-12T10:42:53;4.80;;;1.87;;
6117;SDS011;3089;48.202;11.510;2022-09-12T10:45:23;3.90;;;2.27;;
6117;SDS011;3089;48.202;11.510;2022-09-12T10:47:54;4.07;;;1.60;;
6117;SDS011;3089;48.202;11.510;2022-09-12T10:50:25;5.80;;;2.37;;
6117;SDS011;3089;48.202;11.510;2022-09-12T10:53:12;4.03;;;1.90;;
6117;SDS011;3089;48.202;11.510;2022-09-12T10:55:50;4.20;;;2.27;;
6117;SDS011;3089;48.202;11.510;2022-09-12T10:58:34;3.87;;;2.17;;
6117;SDS011;3089;48.202;11.510;2022-09-12T11:01:16;4.23;;;1.87;;
6117;SDS011;3089;48.202;11.510;2022-09-12T11:03:58;4.57;;;2.17;;
6117;SDS011;3089;48.202;11.510;2022-09-12T11:06:42;3.53;;;1.80;;
6117;SDS011;3089;48.202;11.510;2022-09-12T11:09:17;3.93;;;1.43;;
6117;SDS011;3089;48.202;11.510;2022-09-12T11:11:56;3.63;;;1.90;;
6117;SDS011;3089;48.202;11.510;2022-09-12T11:14:44;3.10;;;1.40;;
6117;SDS011;3089;48.202;11.510;2022-09-12T11:17:24;8.00;;;1.73;;
6117;SDS011;3089;48.202;11.510;2022-09-12T11:20:08;3.80;;;1.97;;
6117;SDS011;3089;48.202;11.510;2022-09-12T11:23:01;4.10;;;1.60;;
6117;SDS011;3089;48.202;11.510;2022-09-12T11:25:47;3.50;;;1.63;;
6117;SDS011;3089;48.202;11.510;2022-09-12T11:28:27;3.57;;;1.50;;
6117;SDS011;3089;48.202;11.510;2022-09-12T11:31:04;3.67;;;1.73;;
6117;SDS011;3089;48.202;11.510;2022-09-12T11:33:42;3.70;;;1.67;;
6117;SDS011;3089;48.202;11.510;2022-09-12T11:36:15;4.77;;;2.10;;
6117;SDS011;3089;48.202;11.510;2022-09-12T11:38:58;5.10;;;1.87;;
6117;SDS011;3089;48.202;11.510;2022-09-12T11:41:33;4.13;;;2.00;;
6117;SDS011;3089;48.202;11.510;2022-09-12T11:44:09;5.83;;;1.63;;
6117;SDS011;3089;48.202;11.510;2022-09-12T11:46:42;3.87;;;1.70;;
6117;SDS011;3089;48.202;11.510;2022-09-12T11:49:18;3.57;;;1.87;;
6117;SDS011;3089;48.202;11.510;2022-09-12T11:51:52;3.60;;;1.83;;
6117;SDS011;3089;48.202;11.510;2022-09-12T11:54:25;3.97;;;1.50;;
6117;SDS011;3089;48.202;11.510;2022-09-12T11:57:00;4.67;;;1.40;;
6117;SDS011;3089;48.202;11.510;2022-09-12T11:59:39;4.13;;;1.50;;
6117;SDS011;3089;48.202;11.510;2022-09-12T12:02:11;3.30;;;1.53;;
6117;SDS011;3089;48.202;11.510;2022-09-12T12:04:43;3.13;;;1.33;;
6117;SDS011;3089;48.202;11.510;2022-09-12T12:07:21;3.10;;;1.47;;
6117;SDS011;3089;48.202;11.510;2022-09-12T12:09:49;3.37;;;1.40;;
6117;SDS011;3089;48.202;11.510;2022-09-12T12:12:20;3.30;;;1.40;;
6117;SDS011;3089;48.202;11.510;2022-09-12T12:14:53;2.83;;;1.30;;
6117;SDS011;3089;48.202;11.510;2022-09-12T12:17:23;2.90;;;1.40;;
6117;SDS011;3089;48.202;11.510;2022-09-12T12:19:58;4.47;;;1.47;;
6117;SDS011;3089;48.202;11.510;2022-09-12T12:22:33;3.47;;;1.60;;
6117;SDS011;3089;48.202;11.510;2022-09-12T12:25:06;5.47;;;1.40;;
6117;SDS011;3089;48.202;11.510;2022-09-12T12:27:55;3.47;;;1.60;;
6117;SDS011;3089;48.202;11.510;2022-09-12T12:36:30;3.80;;;1.60;;
6117;SDS011;3089;48.202;11.510;2022-09-12T12:45:45;2.77;;;1.30;;
6117;SDS011;3089;48.202;11.510;2022-09-12T12:48:31;3.67;;;1.53;;
6117;SDS011;3089;48.202;11.510;2022-09-12T12:53:56;3.20;;;1.53;;
6117;SDS011;3089;48.202;11.510;2022-09-12T12:56:26;3.30;;;1.60;;
6117;SDS011;3089;48.202;11.510;2022-09-12T12:59:00;5.50;;;1.37;;
6117;SDS011;3089;48.202;11.510;2022-09-12T13:01:31;5.40;;;1.60;;
6117;SDS011;3089;48.202;11.510;2022-09-12T13:04:11;3.90;;;1.30;;
6117;SDS011;3089;48.202;11.510;2022-09-12T13:06:42;3.30;;;1.30;;
6117;SDS011;3089;48.202;11.510;2022-09-12T13:09:18;2.90;;;1.40;;
6117;SDS011;3089;48.202;11.510;2022-09-12T13:11:54;3.70;;;1.40;;
6117;SDS011;3089;48.202;11.510;2022-09-12T13:14:33;3.03;;;1.33;;
6117;SDS011;3089;48.202;11.510;2022-09-12T13:17:04;3.73;;;1.67;;
6117;SDS011;3089;48.202;11.510;2022-09-12T13:19:36;3.10;;;1.27;;
6117;SDS011;3089;48.202;11.510;2022-09-12T13:22:05;3.20;;;1.43;;
6117;SDS011;3089;48.202;11.510;2022-09-12T13:24:34;2.93;;;1.30;;
6117;SDS011;3089;48.202;11.510;2022-09-12T13:27:19;2.73;;;1.30;;
6117;SDS011;3089;48.202;11.510;2022-09-12T13:29:48;4.40;;;1.70;;
6117;SDS011;3089;48.202;11.510;2022-09-12T13:32:31;2.90;;;1.50;;
6117;SDS011;3089;48.202;11.510;2022-09-12T13:35:03;2.97;;;1.23;;
6117;SDS011;3089;48.202;11.510;2022-09-12T13:37:40;3.90;;;1.67;;
6117;SDS011;3089;48.202;11.510;2022-09-12T13:40:29;3.00;;;1.20;;
6117;SDS011;3089;48.202;11.510;2022-09-12T13:43:07;4.50;;;1.60;;
6117;SDS011;3089;48.202;11.510;2022-09-12T13:45:40;3.07;;;1.17;;
6117;SDS011;3089;48.202;11.510;2022-09-12T13:48:10;3.20;;;1.50;;
6117;SDS011;3089;48.202;11.510;2022-09-12T13:50:45;3.57;;;1.20;;
6117;SDS011;3089;48.202;11.510;2022-09-12T13:53:18;3.57;;;1.20;;
6117;SDS011;3089;48.202;11.510;2022-09-12T13:55:48;4.73;;;1.07;;
6117;SDS011;3089;48.202;11.510;2022-09-12T13:58:20;3.67;;;1.50;;
6117;SDS011;3089;48.202;11.510;2022-09-12T14:01:02;2.90;;;1.30;;
6117;SDS011;3089;48.202;11.510;2022-09-12T14:03:33;2.40;;;1.03;;
6117;SDS011;3089;48.202;11.510;2022-09-12T14:06:25;2.60;;;1.00;;
6117;SDS011;3089;48.202;11.510;2022-09-12T14:08:54;3.20;;;1.40;;
6117;SDS011;3089;48.202;11.510;2022-09-12T14:11:24;2.73;;;1.17;;
6117;SDS011;3089;48.202;11.510;2022-09-12T14:13:53;2.73;;;1.20;;
6117;SDS011;3089;48.202;11.510;2022-09-12T14:16:22;4.70;;;1.20;;
6117;SDS011;3089;48.202;11.510;2022-09-12T14:18:54;3.03;;;1.40;;
6117;SDS011;3089;48.202;11.510;2022-09-12T14:21:31;3.23;;;1.30;;
6117;SDS011;3089;48.202;11.510;2022-09-12T14:24:01;3.57;;;1.10;;
6117;SDS011;3089;48.202;11.510;2022-09-12T14:26:33;3.10;;;1.20;;
6117;SDS011;3089;48.202;11.510;2022-09-12T14:29:03;3.10;;;1.33;;
6117;SDS011;3089;48.202;11.510;2022-09-12T14:31:33;2.80;;;1.17;;
6117;SDS011;3089;48.202;11.510;2022-09-12T14:34:09;4.20;;;1.60;;
6117;SDS011;3089;48.202;11.510;2022-09-12T14:36:44;3.30;;;1.43;;
6117;SDS011;3089;48.202;11.510;2022-09-12T14:39:15;2.77;;;1.17;;
6117;SDS011;3089;48.202;11.510;2022-09-12T14:41:47;4.10;;;1.67;;
6117;SDS011;3089;48.202;11.510;2022-09-12T14:44:16;4.73;;;1.30;;
6117;SDS011;3089;48.202;11.510;2022-09-12T14:46:47;4.57;;;1.20;;
6117;SDS011;3089;48.202;11.510;2022-09-12T14:49:17;3.83;;;1.73;;
6117;SDS011;3089;48.202;11.510;2022-09-12T14:51:52;3.80;;;1.50;;
6117;SDS011;3089;48.202;11.510;2022-09-12T14:54:34;3.77;;;1.50;;
6117;SDS011;3089;48.202;11.510;2022-09-12T14:57:29;3.60;;;1.27;;
6117;SDS011;3089;48.202;11.510;2022-09-12T15:00:05;2.60;;;1.20;;
6117;SDS011;3089;48.202;11.510;2022-09-12T15:02:46;3.03;;;1.30;;
6117;SDS011;3089;48.202;11.510;2022-09-12T15:05:19;2.83;;;1.13;;
6117;SDS011;3089;48.202;11.510;2022-09-12T15:07:54;3.33;;;1.30;;
6117;SDS011;3089;48.202;11.510;2022-09-12T15:10:25;3.10;;;1.20;;
6117;SDS011;3089;48.202;11.510;2022-09-12T15:13:03;3.40;;;1.40;;
6117;SDS011;3089;48.202;11.510;2022-09-12T15:15:41;4.80;;;1.10;;
6117;SDS011;3089;48.202;11.510;2022-09-12T15:18:09;4.70;;;1.43;;
6117;SDS011;3089;48.202;11.510;2022-09-12T15:20:39;3.47;;;1.50;;
6117;SDS011;3089;48.202;11.510;2022-09-12T15:23:11;3.00;;;1.23;;
6117;SDS011;3089;48.202;11.510;2022-09-12T15:25:43;4.60;;;1.30;;
6117;SDS011;3089;48.202;11.510;2022-09-12T15:28:14;2.70;;;1.10;;
6117;SDS011;3089;48.202;11.510;2022-09-12T15:30:45;3.07;;;1.40;;
6117;SDS011;3089;48.202;11.510;2022-09-12T15:33:15;7.20;;;1.53;;
6117;SDS011;3089;48.202;11.510;2022-09-12T15:35:43;2.70;;;1.30;;
6117;SDS011;3089;48.202;11.510;2022-09-12T15:38:13;2.40;;;1.10;;
6117;SDS011;3089;48.202;11.510;2022-09-12T15:40:41;3.47;;;1.20;;
6117;SDS011;3089;48.202;11.510;2022-09-12T15:43:10;2.70;;;1.17;;
6117;SDS011;3089;48.202;11.510;2022-09-12T15:45:40;4.10;;;1.10;;
6117;SDS011;3089;48.202;11.510;2022-09-12T15:48:09;2.80;;;1.30;;
6117;SDS011;3089;48.202;11.510;2022-09-12T15:50:39;3.57;;;1.30;;
6117;SDS011;3089;48.202;11.510;2022-09-12T15:53:08;3.10;;;1.23;;
6117;SDS011;3089;48.202;11.510;2022-09-12T15:55:40;6.80;;;1.53;;
6117;SDS011;3089;48.202;11.510;2022-09-12T15:58:08;4.07;;;1.20;;